Kings Beach, CA (96143)

1:58 AM PST on November 23, 2014 (GMT -0800)
tahoe vista | Change Station
CLOSE
Current Station
Personal Weather Station
Location: Tahoe Vista, CA
Elevation: 6397 ft
Nearby Weather Stations

Elev 6397 ft 39.24 °N, 120.06 °W | Updated 4 minutes ago

Partly Cloudy
Partly Cloudy
29.3 °F
Feels Like 29 °F
N
0.0
Wind Variable Wind from NW
Gusts 3.0 mph

Today
High -- | Low -- °F
--% Chance of Precip.
Yesterday
High -- | Low -- °F
Precip. -- in
6:52 AM 4:40 PM
New Moon, 1% visible
Pressure 30.29 in
Visibility 0.5 miles
Clouds Mostly Cloudy 200 ft
Windchill 29 °F
Dew Point 19 °F
Humidity 64%
Rainfall 0.00 in
Snow Depth Not available.
UV 0 out of 12
Pollen 2.60 out of 12
Air Quality Not available.
Flu Activity Not available.
METAR KTRK 230935Z AUTO 00000KT 1/2SM FZFG BKN002 M04/M04 A3029 RMK AO2

More Conditions Fewer Conditions

Pressure 30.29 in
Visibility 0.5 miles
Clouds Mostly Cloudy 200 ft
Windchill 29 °F
Dew Point 19 °F
Humidity 64%
Rainfall 0.00 in
Snow Depth Not available.
UV 0 out of 12
Pollen 2.60 out of 12
Air Quality Not available.
Flu Activity Not available.
METAR KTRK 230935Z AUTO 00000KT 1/2SM FZFG BKN002 M04/M04 A3029 RMK AO2

More Conditions Fewer Conditions

10-Day Weather Forecast

Almanac

Astronomy

Nov. 23, 2014 Rise Set
Actual Time
Civil Twilight
Nautical Twilight
Astronomical Twilight
Moon
Length of Visible Light
Length of Day
Tomorrow will be .
, % of the Moon is Illuminated

Today's Extremes

State Highs State Lows

Community

WunderPhotos

Upload Photos

1,773,032 photos uploaded!

WunderBlogs® & News

Nearby

Air Quality

  Air Quality AQ Index Pollutant
Not available.

Snow Depth

Station Depth Elevation

Earthquake Activity

City Distance Mag. Time & Date
Minimum magnitude displayed is 2.5.

Coastal Water Temperatures

Place Temperature

Nearby Weather Stations